Airfield :
LOGIN :

Register | Disclaimer

   EN    FR    IT 

 










Legend :    VFR   Marginal VFR   IFR   Intensive IFR   Very Intensive IFR
Visi :
Ceiling :
>= 8 km
>= 3000ft
5 to 8 km
1000 to 3000 ft
1500m to 5 km
500 to 1000 ft
800 to 1500m
200 to 500 ft
< 800m
< 200 ft
Symbols :   Thunderstorms  Fog  Heavy snow  Heavy precipitations  Wind > 20 kt
SIGMETs :     Misc.  Thunderstorms  Icing  Turbulence  Mountain Waves  Volcanic Ashes






- Airport Elevation : 274 ft
- IATA code : PUY


LDPL - Pula

CURRENT METAR :
  • 031200Z 21008KT 170V240 9999 FEW017 SCT023 28/20 Q1006 TEMPO FEW030TCU

EXPIRED METARs :
  • 031130Z 19007KT 110V230 9999 FEW017 SCT023 29/21 Q1005 TEMPO FEW030TCU
  • 031100Z 16005KT 100V250 9999 FEW017 29/23 Q1006 TEMPO FEW030TCU
  • 031030Z 11009KT 080V160 9999 FEW017 27/23 Q1006 NOSIG
  • 031000Z 11009KT 080V150 9999 FEW017 27/21 Q1006 NOSIG
  • 030930Z 10007KT 070V160 CAVOK 27/21 Q1007 NOSIG

TAF TAF LDPL
Valid from the 03 at 12:00 until the 04 at 12:00 UTC


031125Z 0312/0412 14009KT 9999 FEW030 TX28/0312Z TN17/0402Z
PROB30
TEMPO 0312/0319 TSRA FEW030CB
PROB40
TEMPO 0319/0400 27018G30KT 2000 +TSRA SCT025CB BKN035
PROB30
TEMPO 0403/0412 TSRA FEW030CB
BECMG 0409/0411 27010KT



MET'MAP, your aeronautical weather chart ! - Copyright ORBIFLY December 2007 - Disclaimer

ORBIFLY MET'MAP TEAM :

Programming & Development : Alexandra Zaïnal
Concept & original design : Baudouin d'Aumeries
Assistance for programming : Marc-Olivier Méhu
Technical & hardware support : Manuel Goepfert

Contact : metmap@orbifly.com




SOURCES & CREDITS :

   NOAA